Spa/La Sauveniere, Belgium
Current Conditions -  °F | °C
As of 5:25 PM on Saturday 22 Nov 2014 (Local Time) from EBLB Reporting Station
Few Clouds Few Clouds  
Wind Chill: 46°   Ceiling: Unl
Heat Index: 46°   Visibility: 6mi
Dew Point: 43°   Wind: 1mph
Humidity: 87%   Direction: NA
Pressure: 30.06"   Gusts: NA
Location:  50.49°N, 5.89°E
Report Text: EBLB 221625Z AUTO VRB01KT 9999 FEW150/// 08/06 Q1018 BLU
Loading
Personal Weather Stations






























Interactive Weather Map New forecast layout! Learn more

10-Day Weather Forecast

Advertisements
Track Severe Weather on mobile